Time;durP1;ratioP1;P1;durP2;ratioP2;P2;SDS_P1;SDS_P2;PMS_P1;PMS_P2;Temp;Humidity;BMP_temperature;BMP_pressure;BME280_temperature;BME280_humidity;BME280_pressure;Samples;Min_cycle;Max_cycle;Signal;HPM_P1;HPM_P2
2022/12/25 00:01:50;;;;;;;30.42;9.52;;;;;;;6.87;100.00;101466.00;4937726;29;20028;-83
2022/12/25 00:04:15;;;;;;;30.23;9.48;;;;;;;6.89;100.00;101451.41;4937915;29;20038;-84
2022/12/25 00:06:40;;;;;;;32.25;10.48;;;;;;;6.90;100.00;101445.38;4937411;29;20456;-81
2022/12/25 00:09:06;;;;;;;22.95;9.00;;;;;;;6.85;100.00;101433.59;4937269;29;20384;-84
2022/12/25 00:11:31;;;;;;;29.63;8.98;;;;;;;6.95;100.00;101450.31;4920729;29;20036;-84
2022/12/25 00:13:56;;;;;;;25.42;8.98;;;;;;;6.96;100.00;101446.84;4937879;29;20087;-83
2022/12/25 00:16:24;;;;;;;24.15;9.05;;;;;;;6.97;100.00;101450.25;4937476;29;20432;-84
2022/12/25 00:18:50;;;;;;;20.50;8.38;;;;;;;6.90;100.00;101441.97;4937483;29;20387;-76
2022/12/25 00:21:17;;;;;;;26.45;8.70;;;;;;;6.94;100.00;101438.38;4937348;29;20034;-85
2022/12/25 00:23:42;;;;;;;31.35;9.50;;;;;;;7.01;100.00;101449.25;4937207;29;20051;-79
2022/12/25 00:26:16;;;;;;;28.23;9.02;;;;;;;7.03;100.00;101455.16;4937379;29;20023;-80
2022/12/25 00:28:41;;;;;;;25.52;8.43;;;;;;;7.03;100.00;101450.88;4937303;29;20054;-85
2022/12/25 00:31:09;;;;;;;32.55;8.57;;;;;;;6.96;100.00;101434.00;4937081;29;20023;-82
2022/12/25 00:33:37;;;;;;;25.25;9.23;;;;;;;6.95;100.00;101428.94;4919988;29;20162;-76
2022/12/25 00:36:05;;;;;;;25.23;8.00;;;;;;;6.99;100.00;101433.06;4937194;29;20491;-85
2022/12/25 00:38:31;;;;;;;17.77;8.13;;;;;;;6.96;100.00;101418.59;4936892;29;20367;-84
2022/12/25 00:40:56;;;;;;;23.05;7.95;;;;;;;7.04;100.00;101428.59;4937026;29;20031;-85
2022/12/25 00:43:21;;;;;;;23.42;9.57;;;;;;;7.15;100.00;101446.97;4937130;29;20028;-85
2022/12/25 00:45:58;;;;;;;22.40;8.13;;;;;;;7.18;100.00;101439.19;4936827;29;20031;-84
2022/12/25 00:48:24;;;;;;;22.90;7.80;;;;;;;7.22;100.00;101440.72;4937193;29;20377;-85
2022/12/25 00:50:58;;;;;;;22.42;8.20;;;;;;;7.13;100.00;101418.78;4936946;29;20130;-83
2022/12/25 00:53:24;;;;;;;28.35;8.50;;;;;;;7.21;100.00;101427.94;4936773;29;20036;-84
2022/12/25 00:55:57;;;;;;;22.85;8.30;;;;;;;7.25;100.00;101437.19;4936974;29;20020;-84
2022/12/25 00:58:24;;;;;;;29.75;9.07;;;;;;;7.28;100.00;101437.09;4936728;29;20036;-83
2022/12/25 01:00:50;;;;;;;23.58;8.60;;;;;;;7.30;100.00;101432.72;4936641;29;20032;-84
2022/12/25 01:03:17;;;;;;;23.00;8.73;;;;;;;7.26;100.00;101421.69;4936815;29;20027;-84
2022/12/25 01:05:43;;;;;;;22.40;7.80;;;;;;;7.36;100.00;101427.31;4936531;29;20403;-84
2022/12/25 01:08:09;;;;;;;18.70;7.72;;;;;;;7.39;100.00;101428.03;4936867;29;20027;-83
2022/12/25 01:10:34;;;;;;;26.08;8.60;;;;;;;7.40;100.00;101426.31;4936527;29;20110;-84
2022/12/25 01:12:59;;;;;;;23.77;8.27;;;;;;;7.36;100.00;101414.47;4936646;29;20032;-85
2022/12/25 01:15:25;;;;;;;28.48;10.27;;;;;;;7.35;100.00;101416.19;4936355;29;20078;-80
2022/12/25 01:17:50;;;;;;;18.20;7.88;;;;;;;7.45;100.00;101429.50;4936763;29;20034;-77
2022/12/25 01:20:17;;;;;;;22.13;8.15;;;;;;;7.45;100.00;101429.50;4936619;29;20035;-84
2022/12/25 01:22:43;;;;;;;23.35;8.80;;;;;;;7.14;100.00;101374.22;4936430;29;20475;-84
2022/12/25 01:25:09;;;;;;;28.92;8.55;;;;;;;7.29;100.00;101403.63;4934890;29;20074;-85
2022/12/25 01:27:35;;;;;;;25.73;9.15;;;;;;;7.36;100.00;101425.56;4936130;29;20420;-78
2022/12/25 01:30:00;;;;;;;22.42;9.18;;;;;;;7.25;100.00;101408.94;4936148;29;20027;-83
2022/12/25 01:32:26;;;;;;;23.00;7.93;;;;;;;7.44;100.00;101456.13;4936590;29;20028;-83
2022/12/25 01:34:51;;;;;;;19.27;8.10;;;;;;;7.21;100.00;101412.53;4936268;29;20039;-85
2022/12/25 01:37:17;;;;;;;21.23;8.07;;;;;;;7.44;100.00;101444.09;4936287;29;20035;-84
2022/12/25 01:39:42;;;;;;;21.48;9.00;;;;;;;7.47;100.00;101450.84;4935763;29;20034;-83
2022/12/25 01:42:16;;;;;;;26.85;8.68;;;;;;;7.36;100.00;101435.03;4936072;29;20074;-85
2022/12/25 01:44:44;;;;;;;20.27;8.60;;;;;;;7.48;100.00;101445.66;4935749;29;20027;-84
2022/12/25 01:47:09;;;;;;;19.83;8.50;;;;;;;7.50;100.00;101442.19;4936016;29;20039;-84
2022/12/25 01:49:37;;;;;;;25.15;9.30;;;;;;;7.52;100.00;101441.22;4935917;29;20476;-84
2022/12/25 01:52:14;;;;;;;24.55;8.98;;;;;;;7.29;100.00;101418.19;4935161;29;20062;-83
2022/12/25 01:54:42;;;;;;;24.40;8.43;;;;;;;7.51;100.00;101454.97;4934894;29;20365;-81
2022/12/25 01:57:12;;;;;;;23.13;9.93;;;;;;;7.37;100.00;101434.94;4935165;29;20024;-85
2022/12/25 01:59:38;;;;;;;24.40;10.23;;;;;;;7.39;100.00;101438.31;4935066;29;20042;-84
2022/12/25 02:02:04;;;;;;;24.58;8.82;;;;;;;7.38;100.00;101443.53;4935193;29;20028;-84
2022/12/25 02:04:39;;;;;;;23.10;9.15;;;;;;;7.43;100.00;101452.72;4935272;29;20032;-85
2022/12/25 02:07:09;;;;;;;19.45;8.43;;;;;;;7.50;100.00;101462.75;4935009;29;20024;-85
2022/12/25 02:09:36;;;;;;;21.63;8.77;;;;;;;7.28;100.00;101429.38;4934970;29;20031;-84
2022/12/25 02:12:01;;;;;;;20.08;8.82;;;;;;;7.49;100.00;101459.34;4934722;29;20031;-82
2022/12/25 02:14:29;;;;;;;23.75;8.85;;;;;;;7.51;100.00;101469.56;4935098;29;20087;-81
2022/12/25 02:17:16;;;;;;;24.42;9.02;;;;;;;7.52;100.00;101454.06;4935063;29;20066;-84
2022/12/25 02:19:59;;;;;;;19.50;8.60;;;;;;;7.54;100.00;101466.88;4934901;29;20036;-84
2022/12/25 02:22:39;;;;;;;23.83;8.73;;;;;;;7.54;100.00;101472.84;4934734;29;20103;-82
2022/12/25 02:25:17;;;;;;;21.35;8.63;;;;;;;7.46;100.00;101452.56;4934574;29;20527;-82
2022/12/25 02:27:51;;;;;;;27.63;9.75;;;;;;;7.58;100.00;101469.25;4934824;29;20032;-80
2022/12/25 02:30:17;;;;;;;23.02;10.00;;;;;;;7.60;100.00;101464.06;4935405;29;20118;-83
2022/12/25 02:35:55;;;;;;;20.25;9.32;;;;;;;7.62;100.00;101464.81;4938340;29;20490;-83
2022/12/25 02:38:32;;;;;;;25.13;8.98;;;;;;;7.61;100.00;101469.13;4937981;29;20107;-84
2022/12/25 02:41:03;;;;;;;26.35;9.90;;;;;;;7.59;100.00;101459.81;4937804;29;20460;-82
2022/12/25 03:06:43;;;;;;;25.40;8.63;;;;;;;7.17;100.00;101412.63;4939016;29;20070;-81
2022/12/25 03:12:45;;;;;;;20.10;8.68;;;;;;;7.03;100.00;101396.09;4938841;29;20570;-83
2022/12/25 03:17:59;;;;;;;19.25;7.78;;;;;;;6.85;100.00;101359.13;4939155;29;20051;-84
2022/12/25 03:28:40;;;;;;;23.23;8.52;;;;;;;6.68;100.00;101352.06;4938744;29;20412;-82
2022/12/25 03:31:20;;;;;;;21.77;8.90;;;;;;;6.72;100.00;101370.78;4938262;29;20023;-85
2022/12/25 03:38:07;;;;;;;18.15;9.13;;;;;;;6.59;100.00;101357.59;4898337;29;20096;-84
2022/12/25 04:36:08;;;;;;;15.85;6.35;;;;;;;6.30;100.00;101321.03;4937726;29;20090;-84
2022/12/25 04:38:34;;;;;;;16.08;5.47;;;;;;;6.47;100.00;101343.47;4937153;29;20357;-85
2022/12/25 04:41:00;;;;;;;14.88;6.38;;;;;;;6.47;100.00;101343.47;4937008;29;20031;-85
2022/12/25 04:43:26;;;;;;;13.73;5.50;;;;;;;6.50;100.00;101360.50;4936480;29;20035;-85
2022/12/25 04:45:56;;;;;;;17.88;6.20;;;;;;;6.34;100.00;101344.81;4936971;29;20387;-84
2022/12/25 04:48:22;;;;;;;12.48;5.80;;;;;;;6.42;100.00;101355.66;4937125;29;20043;-85
2022/12/25 04:50:47;;;;;;;15.52;5.88;;;;;;;6.21;100.00;101320.53;4936707;29;20052;-83
2022/12/25 04:53:13;;;;;;;16.85;6.43;;;;;;;6.43;100.00;101351.34;4936554;29;20376;-83
2022/12/25 04:55:38;;;;;;;11.98;5.50;;;;;;;6.39;100.00;101352.34;4919425;29;20032;-83
2022/12/25 04:58:03;;;;;;;10.88;5.38;;;;;;;6.40;100.00;101349.75;4936338;29;20031;-84
2022/12/25 05:00:29;;;;;;;16.08;5.93;;;;;;;6.26;100.00;101331.44;4936603;29;20062;-83
2022/12/25 05:02:54;;;;;;;15.70;5.50;;;;;;;6.37;100.00;101349.00;4936733;29;20051;-85
2022/12/25 05:05:19;;;;;;;12.55;5.38;;;;;;;6.38;100.00;101353.22;4936714;29;20024;-80
2022/12/25 05:07:44;;;;;;;13.80;4.78;;;;;;;6.32;100.00;101344.06;4936582;29;20027;-84
2022/12/25 05:10:10;;;;;;;10.60;5.00;;;;;;;6.27;100.00;101339.09;4936643;29;20103;-85
2022/12/25 05:12:35;;;;;;;16.38;5.45;;;;;;;6.35;100.00;101340.53;4936253;29;20040;-83
2022/12/25 05:15:01;;;;;;;19.15;5.82;;;;;;;6.22;100.00;101323.03;4936259;29;20111;-82
2022/12/25 05:17:26;;;;;;;14.30;6.30;;;;;;;6.30;100.00;101341.56;4936508;29;20027;-80
2022/12/25 05:19:51;;;;;;;14.27;4.90;;;;;;;6.32;100.00;101333.78;4936467;29;20446;-83
2022/12/25 05:22:17;;;;;;;15.23;5.55;;;;;;;6.34;100.00;101332.00;4936316;29;20040;-84
2022/12/25 05:24:42;;;;;;;12.48;5.30;;;;;;;6.36;100.00;101330.22;4936316;29;20051;-83
2022/12/25 05:27:07;;;;;;;9.85;5.05;;;;;;;6.24;100.00;101328.09;4936211;29;20388;-84
2022/12/25 05:29:33;;;;;;;12.43;4.75;;;;;;;6.36;100.00;101322.50;4935809;29;20063;-82
2022/12/25 05:31:58;;;;;;;15.13;4.90;;;;;;;6.25;100.00;101299.84;4936237;29;20102;-83
2022/12/25 05:34:23;;;;;;;12.27;5.25;;;;;;;6.45;100.00;101316.22;4936351;29;20099;-82
2022/12/25 05:36:49;;;;;;;13.73;5.18;;;;;;;6.46;100.00;101302.47;4936080;29;20232;-82
2022/12/25 05:39:14;;;;;;;11.80;5.75;;;;;;;6.51;100.00;101295.47;4919104;29;20023;-81
2022/12/25 05:41:40;;;;;;;12.90;5.28;;;;;;;6.56;100.00;101301.22;4936033;29;20522;-84
2022/12/25 05:44:05;;;;;;;15.80;5.35;;;;;;;6.34;100.00;101255.06;4935922;29;20063;-82
2022/12/25 05:46:30;;;;;;;15.55;5.43;;;;;;;6.64;100.00;101298.38;4936002;29;20384;-81
2022/12/25 05:48:55;;;;;;;11.07;5.35;;;;;;;6.67;100.00;101300.81;4936143;29;20052;-79
2022/12/25 05:51:21;;;;;;;11.15;5.10;;;;;;;6.58;100.00;101284.03;4935657;29;20051;-82
2022/12/25 05:53:46;;;;;;;14.52;5.47;;;;;;;6.72;100.00;101296.34;4935915;29;20032;-83
2022/12/25 05:56:12;;;;;;;12.50;4.93;;;;;;;6.75;100.00;101285.94;4935915;29;20023;-82
2022/12/25 05:58:39;;;;;;;12.45;5.38;;;;;;;6.80;100.00;101282.31;4935908;29;20055;-82
2022/12/25 06:01:17;;;;;;;11.63;5.03;;;;;;;7.04;100.00;101311.28;4935511;29;20032;-84
2022/12/25 06:03:42;;;;;;;13.63;5.50;;;;;;;7.11;100.00;101301.63;4935905;29;20190;-79
2022/12/25 06:06:10;;;;;;;13.68;4.93;;;;;;;7.17;100.00;101296.22;4935175;29;20106;-83
2022/12/25 06:08:35;;;;;;;12.00;5.15;;;;;;;7.06;100.00;101258.13;4935680;29;20028;-79
2022/12/25 06:11:05;;;;;;;14.13;5.05;;;;;;;7.01;100.00;101252.38;4935760;29;20035;-82
2022/12/25 06:13:31;;;;;;;11.30;4.63;;;;;;;7.26;100.00;101277.00;4935657;29;20034;-81
2022/12/25 06:15:57;;;;;;;9.98;4.65;;;;;;;7.26;100.00;101282.16;4935514;29;20090;-79
2022/12/25 06:18:23;;;;;;;12.88;4.50;;;;;;;7.37;100.00;101295.38;4935634;29;20102;-81
2022/12/25 06:20:48;;;;;;;13.80;4.80;;;;;;;7.29;100.00;101270.03;4935784;29;20108;-81
2022/12/25 06:23:14;;;;;;;10.27;4.15;;;;;;;7.43;100.00;101284.84;4935435;29;20027;-81
2022/12/25 06:25:39;;;;;;;11.30;5.10;;;;;;;7.42;100.00;101265.19;4935783;29;20024;-83
2022/12/25 06:28:05;;;;;;;10.27;4.30;;;;;;;7.40;100.00;101246.47;4935614;29;20043;-83
2022/12/25 06:30:31;;;;;;;10.80;4.35;;;;;;;7.49;100.00;101264.06;4935271;29;20110;-78
2022/12/25 06:33:00;;;;;;;8.88;4.20;;;;;;;7.48;100.00;101252.09;4935647;29;20064;-83
2022/12/25 06:35:25;;;;;;;8.38;4.78;;;;;;;7.48;100.00;101250.38;4935584;29;20407;-80
2022/12/25 06:37:51;;;;;;;9.98;4.88;;;;;;;7.48;100.00;101241.81;4935574;29;20028;-82
2022/12/25 06:40:17;;;;;;;13.50;4.72;;;;;;;7.44;100.00;101224.84;4935291;29;20206;-83
2022/12/25 06:42:42;;;;;;;10.38;3.97;;;;;;;7.52;100.00;101232.25;4935481;29;20072;-82
2022/12/25 06:45:08;;;;;;;13.20;3.70;;;;;;;7.60;100.00;101236.16;4935266;29;20034;-81
2022/12/25 06:47:33;;;;;;;8.57;3.47;;;;;;;7.60;100.00;101233.56;4918419;29;20436;-83
2022/12/25 06:49:59;;;;;;;11.55;4.20;;;;;;;7.62;100.00;101236.06;4935229;29;20028;-78
2022/12/25 06:52:24;;;;;;;11.30;4.00;;;;;;;7.60;100.00;101243.03;4917946;29;20039;-83
2022/12/25 06:54:50;;;;;;;12.50;4.28;;;;;;;7.48;100.00;101211.81;4935396;29;20492;-82
2022/12/25 06:57:16;;;;;;;8.73;3.80;;;;;;;7.59;100.00;101208.78;4935354;29;20024;-77
2022/12/25 06:59:41;;;;;;;9.88;3.67;;;;;;;7.53;100.00;101188.47;4935410;29;20031;-77
2022/12/25 07:02:15;;;;;;;11.38;4.03;;;;;;;7.49;100.00;101176.69;4935028;29;20031;-83
2022/12/25 07:04:41;;;;;;;9.00;3.40;;;;;;;7.60;100.00;101191.63;4935201;29;20040;-74
2022/12/25 07:07:08;;;;;;;8.48;3.63;;;;;;;7.65;100.00;101215.38;4935206;29;20437;-80
2022/12/25 07:09:33;;;;;;;13.73;4.32;;;;;;;7.51;100.00;101192.84;4935330;29;20392;-82
2022/12/25 07:12:11;;;;;;;9.40;3.42;;;;;;;7.65;100.00;101213.63;4935262;29;20032;-80
2022/12/25 07:14:36;;;;;;;8.25;3.40;;;;;;;7.41;100.00;101173.63;4935039;29;20036;-81
2022/12/25 07:17:01;;;;;;;8.65;3.53;;;;;;;7.65;100.00;101223.06;4936649;29;20035;-84
2022/12/25 07:19:27;;;;;;;10.13;3.63;;;;;;;7.68;100.00;101223.78;4938665;29;20032;-83
2022/12/25 07:21:52;;;;;;;9.63;4.18;;;;;;;7.53;100.00;101208.19;4938425;29;20024;-84
2022/12/25 07:24:22;;;;;;;12.40;4.18;;;;;;;7.68;100.00;101238.38;4938780;29;20032;-83
2022/12/25 07:26:48;;;;;;;10.20;3.95;;;;;;;7.68;100.00;101246.09;4938580;29;20032;-84
2022/12/25 07:29:13;;;;;;;8.00;3.47;;;;;;;7.56;100.00;101228.63;4938287;29;20111;-84
2022/12/25 07:31:38;;;;;;;10.25;3.65;;;;;;;7.53;100.00;101224.44;4937982;29;20472;-84
2022/12/25 07:34:04;;;;;;;9.52;3.78;;;;;;;7.65;100.00;101249.59;4938301;29;20028;-83
2022/12/25 07:36:29;;;;;;;10.23;4.32;;;;;;;7.70;100.00;101249.44;4938694;29;20032;-83
2022/12/25 07:38:55;;;;;;;7.20;3.70;;;;;;;7.69;100.00;101252.91;4938594;29;20040;-83
2022/12/25 07:41:21;;;;;;;11.13;4.07;;;;;;;7.47;100.00;101219.56;4938531;29;20032;-83
2022/12/25 07:43:50;;;;;;;9.93;4.00;;;;;;;7.69;100.00;101240.03;4938255;29;20028;-82
2022/12/25 07:46:16;;;;;;;9.10;4.22;;;;;;;7.67;100.00;101208.41;4936203;29;21241;-79
2022/12/25 07:48:41;;;;;;;10.18;4.20;;;;;;;7.69;100.00;101212.59;4938292;29;20028;-82
2022/12/25 07:51:11;;;;;;;13.30;4.90;;;;;;;7.69;100.00;101216.91;4938180;29;20028;-80
2022/12/25 07:53:36;;;;;;;11.60;4.10;;;;;;;7.68;100.00;101217.81;4937941;29;20044;-81
2022/12/25 07:56:06;;;;;;;9.40;4.10;;;;;;;7.69;100.00;101233.16;4938085;29;20490;-81
2022/12/25 07:58:32;;;;;;;10.00;4.50;;;;;;;7.70;100.00;101246.84;4938074;29;20071;-82
2022/12/25 08:01:06;;;;;;;10.68;4.88;;;;;;;7.69;100.00;101261.44;4937759;29;20087;-84
2022/12/25 08:03:33;;;;;;;11.90;4.78;;;;;;;7.69;100.00;101276.03;4937884;29;20020;-80
2022/12/25 08:06:03;;;;;;;9.68;4.70;;;;;;;7.70;100.00;101270.00;4937940;29;20381;-79
2022/12/25 08:08:29;;;;;;;9.48;4.78;;;;;;;7.65;100.00;101267.59;4937977;29;20023;-81
2022/12/25 08:10:54;;;;;;;10.48;4.82;;;;;;;7.73;100.00;101275.81;4937862;29;20036;-80
2022/12/25 08:13:19;;;;;;;11.02;4.68;;;;;;;7.68;100.00;101267.50;4937591;29;20439;-78
2022/12/25 08:15:45;;;;;;;8.10;4.28;;;;;;;7.71;100.00;101264.78;4937456;29;20519;-80
2022/12/25 08:18:10;;;;;;;10.30;4.30;;;;;;;7.74;100.00;101269.78;4937476;29;20030;-79
2022/12/25 08:20:36;;;;;;;16.02;8.55;;;;;;;7.76;100.00;101291.09;4937451;29;20364;-81
2022/12/25 08:23:01;;;;;;;14.68;7.05;;;;;;;7.75;100.00;101302.28;4937691;29;20036;-77
2022/12/25 08:25:27;;;;;;;10.32;5.70;;;;;;;7.72;100.00;101287.00;4937546;29;20034;-80
2022/12/25 08:27:52;;;;;;;13.50;6.68;;;;;;;7.80;100.00;101290.97;4936780;29;20031;-79
2022/12/25 08:30:18;;;;;;;27.55;16.20;;;;;;;7.79;100.00;101274.72;4937274;29;20488;-80
2022/12/25 08:32:43;;;;;;;19.42;12.05;;;;;;;7.79;100.00;101266.19;4937253;29;20055;-78
2022/12/25 08:35:09;;;;;;;10.88;6.40;;;;;;;7.80;100.00;101278.13;4937459;29;20074;-77
2022/12/25 08:37:34;;;;;;;10.27;4.30;;;;;;;7.77;100.00;101273.97;4937276;29;20608;-76
2022/12/25 08:39:59;;;;;;;10.48;4.72;;;;;;;7.83;100.00;101272.84;4937271;29;20028;-80
2022/12/25 08:42:25;;;;;;;9.43;5.88;;;;;;;7.78;100.00;101274.78;4937095;29;20467;-79
2022/12/25 08:44:50;;;;;;;10.20;4.72;;;;;;;7.68;100.00;101267.50;4937066;29;20034;-79
2022/12/25 08:47:15;;;;;;;9.63;5.30;;;;;;;7.83;100.00;101291.69;4936881;29;20476;-77
2022/12/25 08:49:41;;;;;;;9.90;6.40;;;;;;;7.72;100.00;101269.00;4937257;29;20039;-81
2022/12/25 08:52:06;;;;;;;9.57;4.82;;;;;;;7.66;100.00;101260.72;4936958;29;20051;-79
2022/12/25 08:54:33;;;;;;;9.43;6.07;;;;;;;7.83;100.00;101285.69;4937269;29;20047;-76
2022/12/25 08:56:58;;;;;;;13.43;7.53;;;;;;;7.81;100.00;101279.78;4935313;29;20099;-78
2022/12/25 08:59:24;;;;;;;11.00;5.18;;;;;;;7.75;100.00;101257.75;4936966;29;20032;-79
2022/12/25 09:01:49;;;;;;;8.93;4.70;;;;;;;7.67;100.00;101234.13;4936897;29;20031;-79
2022/12/25 09:04:14;;;;;;;11.02;5.10;;;;;;;7.89;100.00;101272.59;4936581;29;20079;-78
2022/12/25 09:06:40;;;;;;;9.32;5.03;;;;;;;7.81;100.00;101259.22;4936905;29;20103;-83
2022/12/25 09:09:05;;;;;;;13.38;6.55;;;;;;;7.90;100.00;101269.09;4936749;29;20051;-79
2022/12/25 09:11:31;;;;;;;11.32;5.28;;;;;;;7.90;100.00;101261.38;4935544;29;20070;-76
2022/12/25 09:13:56;;;;;;;11.88;5.50;;;;;;;7.79;100.00;101241.31;4936711;29;20451;-79
2022/12/25 09:16:22;;;;;;;11.75;5.10;;;;;;;7.82;100.00;101245.47;4936443;29;20031;-78
2022/12/25 09:18:48;;;;;;;10.40;5.93;;;;;;;7.89;100.00;101268.28;4936350;29;20071;-80
2022/12/25 09:21:15;;;;;;;11.88;6.78;;;;;;;7.89;100.00;101267.44;4936538;29;20111;-79
2022/12/25 09:23:41;;;;;;;10.23;5.90;;;;;;;7.94;100.00;101278.34;4936304;29;20547;-78
2022/12/25 09:26:09;;;;;;;9.50;5.07;;;;;;;8.05;100.00;101291.53;4936607;29;20098;-79
2022/12/25 09:28:34;;;;;;;14.68;5.97;;;;;;;8.09;100.00;101282.81;4934657;29;20043;-81
2022/12/25 09:31:00;;;;;;;11.13;5.43;;;;;;;8.03;100.00;101259.91;4936360;29;20127;-78
2022/12/25 09:33:26;;;;;;;12.70;6.00;;;;;;;8.15;100.00;101268.81;4934492;29;20040;-78
2022/12/25 09:35:56;;;;;;;10.02;4.53;;;;;;;8.14;100.00;101269.72;4936378;29;20038;-80
2022/12/25 09:38:22;;;;;;;9.87;5.40;;;;;;;8.16;100.00;101280.78;4936266;29;20051;-83
2022/12/25 09:40:57;;;;;;;10.57;5.07;;;;;;;8.12;100.00;101271.53;4935159;29;20356;-83
2022/12/25 09:43:25;;;;;;;9.75;4.85;;;;;;;8.15;100.00;101259.34;4936139;29;20067;-83
2022/12/25 09:45:50;;;;;;;12.07;6.05;;;;;;;8.12;100.00;101240.66;4935979;29;20495;-83
2022/12/25 09:48:17;;;;;;;10.35;5.30;;;;;;;8.06;100.00;101241.78;4936062;29;20032;-83
2022/12/25 09:50:51;;;;;;;9.32;4.88;;;;;;;8.12;100.00;101249.22;4936276;29;20035;-81
2022/12/25 09:53:37;;;;;;;8.45;4.97;;;;;;;8.12;100.00;101256.09;4935847;29;20039;-80
2022/12/25 09:56:11;;;;;;;9.50;5.25;;;;;;;8.10;100.00;101248.47;4936023;29;20099;-81
2022/12/25 09:58:37;;;;;;;12.93;5.72;;;;;;;8.11;100.00;101234.69;4934425;29;20416;-82
2022/12/25 10:01:11;;;;;;;9.13;5.13;;;;;;;8.14;100.00;101238.84;4935893;29;20035;-82
2022/12/25 10:04:10;;;;;;;9.05;5.43;;;;;;;8.01;100.00;101206.00;4935897;29;20499;-84
2022/12/25 10:06:42;;;;;;;13.13;5.35;;;;;;;8.16;100.00;101221.59;4840337;29;20045;-78
2022/12/25 10:09:33;;;;;;;9.93;5.47;;;;;;;8.18;100.00;101223.22;4840344;29;20065;-82
2022/12/25 10:12:37;;;;;;;11.82;5.07;;;;;;;8.14;100.00;101215.69;4785980;30;20058;-85
2022/12/25 10:15:24;;;;;;;11.35;6.00;;;;;;;8.20;100.00;101202.56;4785838;29;20047;-82
2022/12/25 10:18:09;;;;;;;10.27;5.00;;;;;;;8.16;100.00;101203.59;4785949;30;20086;-81
2022/12/25 10:20:55;;;;;;;9.98;4.57;;;;;;;8.21;100.00;101206.81;4785538;29;20065;-82
2022/12/25 10:23:36;;;;;;;8.95;4.97;;;;;;;8.21;100.00;101212.78;4786432;29;20052;-84
2022/12/25 10:26:03;;;;;;;14.77;7.47;;;;;;;8.23;100.00;101204.97;4786020;30;20035;-83
2022/12/25 10:28:40;;;;;;;10.77;6.35;;;;;;;8.22;100.00;101199.00;4785809;29;20035;-83
2022/12/25 10:31:20;;;;;;;10.23;5.15;;;;;;;8.25;100.00;101198.03;4785882;29;20049;-79
2022/12/25 10:33:47;;;;;;;9.75;5.20;;;;;;;8.22;100.00;101206.72;4785716;30;20369;-82
2022/12/25 10:36:16;;;;;;;8.13;4.80;;;;;;;8.18;100.00;101206.97;4785411;30;20049;-80
2022/12/25 10:38:42;;;;;;;10.68;4.60;;;;;;;8.16;100.00;101217.31;4785728;30;20077;-83
2022/12/25 10:41:25;;;;;;;10.25;4.72;;;;;;;8.14;100.00;101216.53;4785836;29;20038;-83
2022/12/25 10:43:55;;;;;;;11.30;4.90;;;;;;;8.12;100.00;101205.50;4820673;29;20115;-81
2022/12/25 10:46:24;;;;;;;8.90;4.95;;;;;;;8.03;100.00;101195.63;4840083;29;20041;-83
2022/12/25 10:48:56;;;;;;;11.73;5.75;;;;;;;7.71;100.00;101156.81;4881322;29;20107;-81
2022/12/25 10:51:32;;;;;;;10.23;4.95;;;;;;;7.95;100.00;101195.97;4936018;29;20121;-82
2022/12/25 10:54:00;;;;;;;11.27;5.47;;;;;;;8.10;100.00;101191.88;4939132;29;20086;-83
2022/12/25 10:56:25;;;;;;;11.40;5.82;;;;;;;8.12;100.00;101177.19;4939322;29;20110;-82
2022/12/25 10:59:02;;;;;;;11.15;5.38;;;;;;;8.15;100.00;101171.06;4939289;29;20053;-79
2022/12/25 11:01:27;;;;;;;13.13;5.93;;;;;;;8.16;100.00;101158.16;4921727;29;20179;-83
2022/12/25 11:03:53;;;;;;;12.43;5.80;;;;;;;8.17;100.00;101154.66;4938696;29;20503;-84
2022/12/25 11:06:27;;;;;;;10.88;6.20;;;;;;;8.17;100.00;101152.09;4938980;29;20032;-83
2022/12/25 11:08:56;;;;;;;12.48;7.05;;;;;;;8.16;100.00;101168.44;4939075;29;20032;-78
2022/12/25 11:11:22;;;;;;;11.18;5.65;;;;;;;7.92;100.00;101118.97;4938840;29;20028;-80
2022/12/25 11:13:52;;;;;;;12.82;6.63;;;;;;;8.15;100.00;101153.88;4938961;29;20114;-80
2022/12/25 11:16:25;;;;;;;12.60;5.93;;;;;;;8.15;100.00;101151.31;4938570;29;20032;-82
2022/12/25 11:18:53;;;;;;;9.50;5.72;;;;;;;8.16;100.00;101152.16;4939023;29;20028;-86
2022/12/25 11:21:32;;;;;;;12.85;6.53;;;;;;;8.08;100.00;101121.66;4938664;29;20036;-82
2022/12/25 11:24:19;;;;;;;12.98;7.65;;;;;;;8.22;100.00;101136.44;4938757;29;20031;-84
2022/12/25 11:26:51;;;;;;;11.98;7.05;;;;;;;8.25;100.00;101131.13;4938553;29;20024;-84
2022/12/25 11:29:41;;;;;;;12.65;6.35;;;;;;;8.27;100.00;101119.03;4938489;29;20484;-85
2022/12/25 11:32:15;;;;;;;13.32;7.50;;;;;;;8.17;100.00;101086.97;4938519;29;20023;-85
2022/12/25 11:34:47;;;;;;;12.30;6.55;;;;;;;8.33;100.00;101091.25;4938535;29;20032;-83
2022/12/25 11:37:21;;;;;;;11.18;6.70;;;;;;;8.34;100.00;101090.38;4938228;29;20082;-84
2022/12/25 11:39:46;;;;;;;12.25;7.28;;;;;;;8.38;100.00;101092.81;4921087;29;20194;-81
2022/12/25 11:42:31;;;;;;;11.77;6.70;;;;;;;8.39;100.00;101089.34;4938356;29;20126;-80
2022/12/25 11:45:02;;;;;;;12.80;7.28;;;;;;;8.32;100.00;101078.47;4938324;29;20035;-84
2022/12/25 11:47:33;;;;;;;;;;;;;;;8.39;100.00;101085.03;4938629;29;20028;-83
2022/12/25 11:50:12;;;;;;;11.63;6.50;;;;;;;8.16;100.00;101064.69;4938186;29;19921;-83
2022/12/25 11:52:41;;;;;;;11.68;7.55;;;;;;;7.97;100.00;101039.91;4938137;29;20047;-85
2022/12/25 11:55:19;;;;;;;11.80;7.70;;;;;;;8.26;100.00;101082.19;4938160;29;20030;-84
2022/12/25 11:57:51;;;;;;;13.27;8.80;;;;;;;8.13;100.00;101065.69;4938333;29;20066;-85
2022/12/25 12:00:27;;;;;;;12.82;7.60;;;;;;;8.27;100.00;101071.00;4937755;29;20031;-85
2022/12/25 12:03:02;;;;;;;15.45;8.15;;;;;;;8.21;100.00;101052.44;4937508;29;20031;-85
2022/12/25 12:05:38;;;;;;;15.05;9.02;;;;;;;8.16;100.00;101041.53;4937880;29;20059;-85
2022/12/25 12:08:05;;;;;;;15.73;10.52;;;;;;;8.30;100.00;101057.97;4937919;29;20395;-87
2022/12/25 12:10:50;;;;;;;16.95;12.25;;;;;;;8.24;100.00;101036.84;4938010;29;20035;-86
2022/12/25 12:13:23;;;;;;;19.67;15.02;;;;;;;8.29;100.00;101050.34;4937681;29;20114;-87
2022/12/25 12:15:49;;;;;;;16.77;13.77;;;;;;;8.34;100.00;101062.06;4937800;29;20507;-88
2022/12/25 12:18:26;;;;;;;18.90;13.40;;;;;;;8.39;100.00;101061.84;4937776;29;20372;-85
2022/12/25 12:21:03;;;;;;;14.93;12.15;;;;;;;8.38;100.00;101064.50;4937374;29;20122;-86
2022/12/25 12:23:32;;;;;;;15.40;10.23;;;;;;;8.39;100.00;101073.91;4937478;29;20483;-85
2022/12/25 12:25:58;;;;;;;14.80;10.70;;;;;;;8.39;100.00;101067.00;4937625;29;20036;-87
2022/12/25 12:28:28;;;;;;;15.57;9.88;;;;;;;8.33;100.00;101057.81;4937486;29;20024;-84
2022/12/25 12:31:00;;;;;;;17.73;11.90;;;;;;;8.41;100.00;101065.19;4937612;29;20051;-85
2022/12/25 12:33:30;;;;;;;18.63;14.35;;;;;;;8.41;100.00;101062.59;4937468;29;20125;-88
2022/12/25 12:35:56;;;;;;;21.90;17.15;;;;;;;8.31;100.00;101030.50;4937263;29;20459;-86
2022/12/25 12:38:23;;;;;;;19.95;17.40;;;;;;;8.44;100.00;101031.56;4937296;29;20027;-84
2022/12/25 12:40:59;;;;;;;19.65;15.43;;;;;;;8.47;100.00;101028.03;4937220;29;20039;-86
2022/12/25 12:43:38;;;;;;;17.13;15.27;;;;;;;8.50;100.00;101028.69;4937310;29;20030;-80
2022/12/25 12:46:26;;;;;;;14.43;11.20;;;;;;;8.50;100.00;101017.56;4937467;29;20563;-82
2022/12/25 12:48:54;;;;;;;15.13;9.93;;;;;;;8.44;100.00;101007.56;4937354;29;20023;-80
2022/12/25 12:51:32;;;;;;;12.63;9.93;;;;;;;8.58;100.00;101015.44;4936857;29;20034;-80
2022/12/25 12:54:19;;;;;;;14.95;10.82;;;;;;;8.57;100.00;101018.91;4919320;29;20054;-76
2022/12/25 12:57:25;;;;;;;15.45;11.40;;;;;;;8.52;100.00;101013.16;4937083;29;20055;-84
2022/12/25 12:59:51;;;;;;;19.33;14.55;;;;;;;8.37;100.00;100985.66;4914064;29;20484;-81
2022/12/25 13:02:22;;;;;;;11.82;9.32;;;;;;;8.50;100.00;101015.81;4936883;29;20087;-79
2022/12/25 13:05:15;;;;;;;12.85;9.75;;;;;;;8.34;100.00;100984.88;4936828;29;20028;-80
2022/12/25 13:07:50;;;;;;;13.43;9.30;;;;;;;8.53;100.00;101007.94;4936464;29;20091;-82